Weather at Raleigh Executive Jetport

Public forecast

Using degrees Fahrenheit for public forecast. Weather courtesy of forecast.io.

Current aviation weather report (METAR) for Raleigh Executive Jetport

2024/06/20 15:05 (retrieved 18 minutes ago)

KTTA 201505Z AUTO 01005KT 10SM SCT034 SCT043 SCT050 27/18 A3035 RMK AO2 T02700178

Closest aviation forecast (TAF) to Raleigh Executive Jetport

Closest forecast is Raleigh Durham International Airport, 23.3 nm (43.2 km) NE.

2024/06/20 12:22 (retrieved 3 hours ago)

TAF KRDU 201120Z 2012/2112 09005KT P6SM SCT050 SCT250